Sekiu, WA (98381)

3:40 PM PST on December 08, 2016 (GMT -0800)
| | Change Station

Elev -9999 ft 0.00 °N, 0.00 °E | Updated 18 seconds ago

Mostly Cloudy
Mostly Cloudy
°F
Feels Like °F
N
Wind Variable Wind from North
Gusts mph

Today
High -- | Low -- °F
--% Chance of Precip.
Yesterday
High -- | Low -- °F
Precip. -- in
Pressure 29.83 in
Visibility 10.0 miles
Clouds Clear
Dew Point Not available.
Humidity Not available.
Rainfall --
Snow Depth Not available.
7:56 AM 4:23 PM
Waxing Gibbous, 68% visible
METAR KUIL 082253Z AUTO 06016G25KT 10SM CLR 02/M07 A2983 RMK AO2 SLP102 T00171067
Pressure 29.83 in
Visibility 10.0 miles
Clouds Clear
Dew Point Not available.
Humidity Not available.
Rainfall --
Snow Depth Not available.
7:56 AM 4:23 PM
Waxing Gibbous, 68% visible
METAR KUIL 082253Z AUTO 06016G25KT 10SM CLR 02/M07 A2983 RMK AO2 SLP102 T00171067

10-Day Weather Forecast

Almanac

Astronomy

Dec. 08, 2016 Rise Set
Actual Time
Civil Twilight
Nautical Twilight
Astronomical Twilight
Moon
Length of Visible Light
Length of Day
Tomorrow will be .
, % of the Moon is Illuminated

Today's Extremes

State Highs State Lows

Community

WunderPhotos

Upload Photos

1,956,277 photos uploaded!

WunderBlog® & News

Nearby

Air Quality

  Air Quality AQ Index Pollutant
Not available.

Snow Depth

Station Depth Elevation

Earthquake Activity

City Distance Mag. Time & Date
Minimum magnitude displayed is 2.5.

Coastal Water Temperatures

Place Temperature

Stations

Nearby Weather Stations

Station Location Temp. Windchill Dew Point Humidity Wind Precip. Elev Updated Type
                   

Watches & Warnings

Winter Weather Advisory
Issued: 12:25 PM PST Dec. 8, 2016 – National Weather Service

... Winter Weather Advisory remains in effect from 4 PM this
afternoon to 8 am PST Friday...

* timing... a weather system will move from south to north over
western Washington tonight. With cold air in place...
precipitation will start as snow tonight before changing to rain
by daybreak Friday.

* Accumulation... snowfall accumulations of 1 to 3 inches are
expected across most of The Lowlands.

* Main impact... travel will affected as roadway surface conditions
may become slippery.

Precautionary/preparedness actions...

People planning on travel late Thursday afternoon and night should
expect winter driving conditions.





Wind Advisory
Issued: 8:25 AM PST Dec. 8, 2016 – National Weather Service

... Wind Advisory in effect until 9 PM PST this evening...

The National Weather Service in Seattle has issued a Wind Advisory...
which is in effect until 9 PM PST this evening.

* Timing... today through early this evening.

* Winds... east winds 25 to 35 mph with gusts to 50 mph.

* Locations... Sekiu and Neah Bay.

* Impacts... local power outages are possible.

Precautionary/preparedness actions...

A Wind Advisory means that winds of 35 mph are expected. Winds this
strong can make driving difficult... especially for high profile
vehicles. Use extra caution.